AirNav   Duncan Aviation - Near you to keep you flying
 
 1461 users online  

WN92 Sky Meadows Airpark
Spokane, Washington, USA

GOING TO SPOKANE?


FAA INFORMATION EFFECTIVE 21 APRIL 2022

Location

FAA Identifier: WN92
Lat/Long: 47-36-30.6280N 117-10-50.7260W
47-36.510467N 117-10.845433W
47.6085078,-117.1807572
(estimated)
Elevation: 2350 ft. / 716 m (estimated)
Variation: 19E (1985)
From city: 8 miles SE of SPOKANE, WA
Time zone: UTC -7 (UTC -8 during Standard Time)
Zip code: 99016

Airport Operations

Airport use: Private use. Permission required prior to landing
Activation date: 01/1988
Control tower: no
ARTCC: SEATTLE CENTER
FSS: SEATTLE FLIGHT SERVICE STATION
Attendance: UNATNDD
Wind indicator: yes
Segmented circle: no
Lights: ACTVT MIRL RY 16/34 - 122.9.

Airport Communications

WX ASOS at SFF (7 nm NW): 120.55 (509-535-3290)
WX ASOS at GEG (14 nm W): PHONE 509-742-2544
WX AWOS-3PT at COE (18 nm NE): 135.075 (208-772-8215)

Nearby radio navigation aids

VOR radial/distance  VOR name  Freq  Var
COEr217/17.6COEUR D'ALENE VOR/DME108.8019E
GEGr061/18.2SPOKANE VORTAC115.5021E

 
NDB name  Hdg/Dist  Freq  Var  ID
DEER PARK139/23.736516EDPY -.. .--. -.--

Airport Services

Runway Information

Runway 16/34

Dimensions: 3100 x 100 ft. / 945 x 30 m
Surface: turf, in good condition
Runway edge lights: medium intensity
RUNWAY 16  RUNWAY 34
Traffic pattern: leftleft
Displaced threshold: no400 ft.

Airport Ownership and Management from official FAA records

Ownership: Privately-owned
Owner: SKY MEADOWS AIRPARK ASSOC
16616 E 44TH AVE
GREENACRES, WA 99016
Phone (509) 999-1505
OR CALL 509-926-1636 (EVENINGS).
Manager: RUSTY IMES
51209 S SKY MEADOWS LN
GREENACRES, WA 99016
Phone 509-370-6445
ALT MANAGER 509-891-6764.

Airport Operational Statistics

Aircraft based on the field: 7
Single engine airplanes: 7
    

Additional Remarks

FOR CD CTC SPOKANE APCH AT 509-742-2522

Instrument Procedures

There are no published instrument procedures at WN92.

Some nearby airports with instrument procedures:

KSFF - Felts Field Airport (7 nm NW)
KGEG - Spokane International Airport (14 nm W)
KCOE - Coeur d'Alene Airport - Pappy Boyington Field (18 nm NE)
KSKA - Fairchild Air Force Base (19 nm W)
KDEW - Deer Park Airport (24 nm NW)
 
Loc | Ops | Rwys | IFR | FBO | Links
Com | Nav | Svcs | Stats | Notes
Area around WN92 (Sky Meadows Airpark)
 
Road maps at: MapQuest Bing Google
 
Aerial photo
WARNING: Photo may not be current or correct
Aerial photo of WN92 (Sky Meadows Airpark)
Do you have a better or more recent aerial photo of Sky Meadows Airpark that you would like to share? If so, please send us your photo.

 
Sectional chart

 
Airport distance calculator
Flying to Sky Meadows Airpark? Find the distance to fly.

From to WN92

Sunrise and sunset
Times for 18-May-2022
 Local
(UTC-7)
 Zulu
(UTC)
Morning civil twilight04:3111:31
Sunrise05:0912:09
Sunset20:2203:22
Evening civil twilight20:5903:59

Current date and time
Zulu (UTC)  18-May-2022 22:26:41
Local (UTC-7)  18-May-2022 15:26:41
 
METAR
KSFF 
7nm NW 
182153Z VRB03KT 4SM HZ FEW032 BKN043 OVC100 14/10 A2987 RMK AO2 PK WND 23026/2108 RAB21E52 SLP115 P0005 T01390100
KGEG 
14nm W 
182153Z 21023G30KT 10SM SCT035 BKN043 15/07 A2986 RMK AO2 PK WND 23031/2141 RAB2057E28 SLP112 VCSH P0005 T01500072
KCOE 
18nm NE 
182156Z AUTO 23011KT 8SM -RA BKN033 OVC040 11/07 A2989 RMK AO2 PK WND 20026/2112 RAB50 SLP142 T01110072 PNO $
KSKA 
19nm W 
182158Z AUTO 23020G24KT 10SM FEW043 SCT090 15/07 A2985 RMK AO2 PK WND 22033/30 RAE00 SLP112 T01450066 PWINO $
TAF
KSFF 
7nm NW 
181734Z 1818/1918 20012KT P6SM -RA SCT030 OVC060 FM181900 22013G20KT P6SM BKN045 FM182200 24020G32KT P6SM SCT060 SCT250 FM190400 23015G22KT P6SM SCT200 FM191200 22010KT P6SM OVC100
KGEG 
14nm W 
181734Z 1818/1918 20013KT P6SM -RA SCT025 OVC050 FM181900 21022G30KT P6SM VCSH SCT025 BKN060 FM182200 23025G38KT P6SM SCT060 SCT250 FM190400 23018G25KT P6SM SCT200 FM191200 21016KT P6SM OVC100
KCOE 
18nm NE 
181734Z 1818/1918 17013KT P6SM -RA SCT025 OVC050 FM182000 21022G31KT P6SM VCSH BKN040 BKN070 TEMPO 1821/1823 5SM SHRA OVC035 FM190000 23024G33KT P6SM SCT060 SCT250 FM190600 23016G21KT P6SM SKC FM191200 21011KT P6SM OVC100
KSKA 
19nm W 
181900Z 1819/2001 20020G30KT 9999 BKN040 620507 510003 QNH2989INS BECMG 1819/1820 23020G35KT 9999 BKN040 620507 510003 QNH2989INS BECMG 1901/1902 25012KT 9999 SCT060 QNH2985INS BECMG 1914/1915 24010G15KT 9999 SCT040 BKN060 620604 QNH2990INS BECMG 1923/1924 30009KT 9999 BKN070 620704 QNH2993INS TX14/1900Z TN02/1912Z
NOTAMs
Click for the latest NOTAMs
NOTAMs are issued by the DoD/FAA and will open in a separate window not controlled by AirNav.

 

 
 

Would you like to see your business listed on this page?

 If your business provides an interesting product or service to pilots, flight crews, aircraft, or users of the Sky Meadows Airpark, you should consider listing it here.  To start the listing process, click on the button below
 
Add a business
 

Other Pages about Sky Meadows Airpark

Update a link
 
Copyright © AirNav, LLC. All rights reserved. Privacy Policy  Contact